createdAt,value
2022-12-25T00:01:25.947Z,73.16
2022-12-25T00:03:59.865Z,73.34
2022-12-25T00:06:32.592Z,73.52
2022-12-25T00:09:05.006Z,73.80
2022-12-25T00:11:37.574Z,73.89
2022-12-25T00:14:10.024Z,74.03
2022-12-25T00:16:42.672Z,74.02
2022-12-25T00:19:15.343Z,73.99
2022-12-25T00:21:47.982Z,74.09
2022-12-25T00:24:20.392Z,74.05
2022-12-25T00:26:53.058Z,74.06
2022-12-25T00:29:25.672Z,74.07
2022-12-25T00:31:58.323Z,74.18
2022-12-25T00:34:31.365Z,74.21
2022-12-25T00:37:04.323Z,74.16
2022-12-25T00:39:37.140Z,74.11
2022-12-25T00:42:20.542Z,74.33
2022-12-25T00:44:53.559Z,74.35
2022-12-25T00:47:26.394Z,74.31
2022-12-25T00:49:59.118Z,74.48
2022-12-25T00:52:32.281Z,74.67
2022-12-25T00:55:05.681Z,74.40
2022-12-25T00:57:38.699Z,74.44
2022-12-25T01:00:11.973Z,74.34
2022-12-25T01:02:44.696Z,74.17
2022-12-25T01:05:18.103Z,73.83
2022-12-25T01:07:50.891Z,73.98
2022-12-25T01:10:24.035Z,73.79
2022-12-25T01:12:57.152Z,73.60
2022-12-25T01:15:29.898Z,73.63
2022-12-25T01:18:07.602Z,73.73
2022-12-25T01:20:41.915Z,73.64
2022-12-25T01:23:14.186Z,73.72
2022-12-25T01:25:47.312Z,73.59
2022-12-25T01:28:20.356Z,73.70
2022-12-25T01:30:53.108Z,73.54
2022-12-25T01:33:25.776Z,73.60
2022-12-25T01:35:59.094Z,73.46
2022-12-25T01:38:31.974Z,73.38
2022-12-25T01:41:04.999Z,73.27
2022-12-25T01:43:38.155Z,73.19
2022-12-25T01:46:11.312Z,73.16
2022-12-25T01:48:44.386Z,73.22
2022-12-25T01:51:27.035Z,73.12
2022-12-25T01:54:03.928Z,73.20
2022-12-25T01:56:38.283Z,73.01
2022-12-25T01:59:12.561Z,73.09
2022-12-25T02:01:45.310Z,73.11
2022-12-25T02:04:41.174Z,73.15
2022-12-25T02:07:22.566Z,73.44
2022-12-25T02:09:56.065Z,73.69
2022-12-25T02:12:32.652Z,73.84
2022-12-25T02:15:22.011Z,73.84
2022-12-25T02:18:11.904Z,73.90
2022-12-25T02:20:53.114Z,73.67
2022-12-25T02:23:55.820Z,73.42
2022-12-25T02:26:44.765Z,73.39
2022-12-25T02:29:34.560Z,73.43
2022-12-25T02:32:24.272Z,73.39
2022-12-25T02:35:23.016Z,73.35
2022-12-25T02:38:08.512Z,73.36
2022-12-25T02:40:46.684Z,73.40
2022-12-25T02:43:57.987Z,73.36
2022-12-25T02:46:54.334Z,73.38
2022-12-25T02:49:48.089Z,73.49
2022-12-25T02:52:43.430Z,73.68
2022-12-25T02:55:39.740Z,73.57
2022-12-25T02:58:36.465Z,73.73
2022-12-25T03:01:36.045Z,73.58
2022-12-25T03:04:31.534Z,73.46
2022-12-25T03:07:19.229Z,73.57
2022-12-25T03:10:25.396Z,73.59
2022-12-25T03:13:02.346Z,73.74
2022-12-25T03:15:55.118Z,73.64
2022-12-25T03:18:30.733Z,73.44
2022-12-25T03:21:22.385Z,73.38
2022-12-25T03:24:19.333Z,73.41
2022-12-25T03:26:58.485Z,73.50
2022-12-25T03:29:54.995Z,73.51
2022-12-25T03:32:30.427Z,73.32
2022-12-25T03:35:26.127Z,73.28
2022-12-25T03:38:35.832Z,73.42
2022-12-25T03:41:32.728Z,73.48
2022-12-25T03:44:32.989Z,73.53
2022-12-25T03:47:36.634Z,73.55
2022-12-25T03:50:51.333Z,73.55
2022-12-25T03:53:52.336Z,73.50
2022-12-25T03:56:44.013Z,73.39
2022-12-25T03:59:38.824Z,73.25
2022-12-25T04:02:30.828Z,73.27
2022-12-25T04:05:22.808Z,73.31
2022-12-25T04:08:14.305Z,73.32
2022-12-25T04:11:05.997Z,73.16
2022-12-25T04:13:57.228Z,73.03
2022-12-25T04:16:49.176Z,72.93
2022-12-25T04:19:40.908Z,72.84
2022-12-25T04:22:32.219Z,72.70
2022-12-25T04:25:23.508Z,72.63
2022-12-25T04:28:20.888Z,72.64
2022-12-25T04:31:12.226Z,72.91
2022-12-25T04:34:03.796Z,73.21
2022-12-25T04:36:36.850Z,73.33
2022-12-25T04:39:10.562Z,73.37
2022-12-25T04:41:43.201Z,73.57
2022-12-25T04:44:16.041Z,73.80
2022-12-25T04:46:48.606Z,73.54
2022-12-25T04:49:21.680Z,73.33
2022-12-25T04:51:54.372Z,73.27
2022-12-25T04:54:27.204Z,73.07
2022-12-25T04:57:00.394Z,73.08
2022-12-25T04:59:33.270Z,72.99
2022-12-25T05:02:06.072Z,72.86
2022-12-25T05:04:38.972Z,73.12
2022-12-25T05:07:11.558Z,73.18
2022-12-25T05:09:44.276Z,73.17
2022-12-25T05:12:16.786Z,73.39
2022-12-25T05:14:49.403Z,73.44
2022-12-25T05:17:21.950Z,73.42
2022-12-25T05:19:54.758Z,73.48
2022-12-25T05:22:27.266Z,73.62
2022-12-25T05:24:59.826Z,73.72
2022-12-25T05:27:32.579Z,73.66
2022-12-25T05:30:05.325Z,73.56
2022-12-25T05:32:37.803Z,73.57
2022-12-25T05:35:10.961Z,73.48
2022-12-25T05:37:43.924Z,73.35
2022-12-25T05:40:16.768Z,73.41
2022-12-25T05:42:49.604Z,73.41
2022-12-25T05:45:22.299Z,73.54
2022-12-25T05:47:58.659Z,73.57
2022-12-25T05:50:31.558Z,73.91
2022-12-25T05:53:12.696Z,73.79
2022-12-25T05:55:46.029Z,74.04
2022-12-25T05:58:18.640Z,74.17
2022-12-25T06:00:51.371Z,74.28
2022-12-25T06:03:23.963Z,74.43
2022-12-25T06:05:56.984Z,74.62
2022-12-25T06:08:29.809Z,74.67
2022-12-25T06:11:05.206Z,74.73
2022-12-25T06:13:38.605Z,74.89
2022-12-25T06:16:13.225Z,74.67
2022-12-25T06:18:48.590Z,74.48
2022-12-25T06:21:21.749Z,74.46
2022-12-25T06:23:54.904Z,74.29
2022-12-25T06:26:27.743Z,73.97
2022-12-25T06:29:00.947Z,73.97
2022-12-25T06:31:34.151Z,73.97
2022-12-25T06:34:07.059Z,74.73
2022-12-25T06:36:41.936Z,75.31
2022-12-25T06:39:14.703Z,75.49
2022-12-25T06:41:47.614Z,75.65
2022-12-25T06:44:20.267Z,75.40
2022-12-25T06:46:54.281Z,79.28
2022-12-25T06:49:27.445Z,79.93
2022-12-25T06:52:00.673Z,80.42
2022-12-25T06:54:33.222Z,80.18
2022-12-25T06:57:05.750Z,78.72
2022-12-25T06:59:38.705Z,79.82
2022-12-25T07:02:22.349Z,79.20
2022-12-25T07:04:55.780Z,79.23
2022-12-25T07:07:28.705Z,81.96
2022-12-25T07:10:01.465Z,79.89
2022-12-25T07:12:34.079Z,80.48
2022-12-25T07:15:06.916Z,79.73
2022-12-25T07:17:40.030Z,80.12
2022-12-25T07:20:13.062Z,79.28
2022-12-25T07:22:45.927Z,79.37
2022-12-25T07:25:18.832Z,80.06
2022-12-25T07:27:51.755Z,77.76
2022-12-25T07:30:24.476Z,77.60
2022-12-25T07:32:57.192Z,79.62
2022-12-25T07:35:29.978Z,79.48
2022-12-25T07:38:02.930Z,77.87
2022-12-25T07:40:36.257Z,78.00
2022-12-25T07:43:08.865Z,78.65
2022-12-25T07:45:42.477Z,77.77
2022-12-25T07:48:16.801Z,79.03
2022-12-25T07:50:49.794Z,77.90
2022-12-25T07:53:22.871Z,77.79
2022-12-25T07:56:03.004Z,77.81
2022-12-25T07:58:36.607Z,77.14
2022-12-25T08:01:13.947Z,77.92
2022-12-25T08:03:57.449Z,77.47
2022-12-25T08:06:34.167Z,77.16
2022-12-25T08:09:11.250Z,77.52
2022-12-25T08:11:48.209Z,77.08
2022-12-25T08:14:20.983Z,76.88
2022-12-25T08:16:53.678Z,78.20
2022-12-25T08:19:26.436Z,78.28
2022-12-25T08:21:59.367Z,77.54
2022-12-25T08:24:32.101Z,78.11
2022-12-25T08:27:05.003Z,77.91
2022-12-25T08:29:37.407Z,77.82
2022-12-25T08:32:10.268Z,77.45
2022-12-25T08:34:43.368Z,77.41
2022-12-25T08:37:16.144Z,77.69
2022-12-25T08:39:49.099Z,78.94
2022-12-25T08:42:22.150Z,79.60
2022-12-25T08:44:55.205Z,78.75
2022-12-25T08:47:28.595Z,78.92
2022-12-25T08:50:01.315Z,79.50
2022-12-25T08:52:33.965Z,79.98
2022-12-25T08:55:08.717Z,80.33
2022-12-25T08:57:42.767Z,79.33
2022-12-25T09:00:15.777Z,78.16
2022-12-25T09:02:49.021Z,77.56
2022-12-25T09:05:22.200Z,77.67
2022-12-25T09:07:55.235Z,77.71
2022-12-25T09:10:28.151Z,77.31
2022-12-25T09:13:00.955Z,76.95
2022-12-25T09:15:34.061Z,77.25
2022-12-25T09:18:07.162Z,77.13
2022-12-25T09:20:39.991Z,77.28
2022-12-25T09:23:14.317Z,77.28
2022-12-25T09:25:47.230Z,77.39
2022-12-25T09:28:19.615Z,77.00
2022-12-25T09:30:55.621Z,76.80
2022-12-25T09:33:28.996Z,76.52
2022-12-25T09:36:07.568Z,76.59
2022-12-25T09:38:40.359Z,76.05
2022-12-25T09:41:53.495Z,75.99
2022-12-25T09:44:31.007Z,75.96
2022-12-25T09:47:12.942Z,75.66
2022-12-25T09:49:56.376Z,75.46
2022-12-25T09:52:48.069Z,75.28
2022-12-25T09:55:25.538Z,74.95
2022-12-25T09:58:04.745Z,74.86
2022-12-25T10:00:53.701Z,74.69
2022-12-25T10:04:01.513Z,74.60
2022-12-25T10:07:19.250Z,73.89
2022-12-25T10:10:30.440Z,73.30
2022-12-25T10:13:12.115Z,73.21
2022-12-25T10:16:08.727Z,73.35
2022-12-25T10:19:20.989Z,73.28
2022-12-25T10:21:58.155Z,73.08
2022-12-25T10:24:56.211Z,73.10
2022-12-25T10:27:43.227Z,72.88
2022-12-25T10:30:23.824Z,72.67
2022-12-25T10:32:59.435Z,72.73
2022-12-25T10:35:33.280Z,72.89
2022-12-25T10:38:15.056Z,72.47
2022-12-25T10:41:12.303Z,72.45
2022-12-25T10:43:53.292Z,72.70
2022-12-25T10:46:30.356Z,72.66
2022-12-25T10:49:05.843Z,72.64
2022-12-25T10:51:40.455Z,72.47
2022-12-25T10:54:27.856Z,72.62
2022-12-25T10:57:03.584Z,72.77
2022-12-25T10:59:47.658Z,72.74
2022-12-25T11:02:33.178Z,72.45
2022-12-25T11:05:16.878Z,71.88
2022-12-25T11:07:56.061Z,72.31
2022-12-25T11:10:45.128Z,72.11
2022-12-25T11:13:31.994Z,72.07
2022-12-25T11:16:10.201Z,72.08
2022-12-25T11:18:54.794Z,71.78
2022-12-25T11:21:39.348Z,71.88
2022-12-25T11:24:24.509Z,71.70
2022-12-25T11:27:01.214Z,71.39
2022-12-25T11:29:43.664Z,71.08
2022-12-25T11:32:32.001Z,71.18
2022-12-25T11:35:13.486Z,71.52
2022-12-25T11:37:52.720Z,70.86
2022-12-25T11:40:50.166Z,70.50
2022-12-25T11:43:42.602Z,70.41
2022-12-25T11:46:26.442Z,70.20
2022-12-25T11:49:08.750Z,70.46
2022-12-25T11:51:46.029Z,71.18
2022-12-25T11:54:35.102Z,71.52
2022-12-25T11:57:09.554Z,71.37
2022-12-25T11:59:58.241Z,71.87
2022-12-25T12:02:59.492Z,71.94
2022-12-25T12:05:40.340Z,72.01
2022-12-25T12:08:14.838Z,71.75
2022-12-25T12:11:17.818Z,71.58
2022-12-25T12:13:55.962Z,71.75
2022-12-25T12:16:29.465Z,71.78
2022-12-25T12:19:13.499Z,71.93
2022-12-25T12:21:51.924Z,72.21
2022-12-25T12:24:27.336Z,72.31
2022-12-25T12:27:07.923Z,72.10
2022-12-25T12:29:50.547Z,72.05
2022-12-25T12:32:32.436Z,71.27
2022-12-25T12:35:26.871Z,71.48
2022-12-25T12:38:12.436Z,71.68
2022-12-25T12:41:08.082Z,70.93
2022-12-25T12:43:42.162Z,71.55
2022-12-25T12:46:43.864Z,70.82
2022-12-25T12:49:34.018Z,69.38
2022-12-25T12:52:23.127Z,69.29
2022-12-25T12:55:08.615Z,69.13
2022-12-25T12:57:41.904Z,69.05
2022-12-25T13:00:22.108Z,69.01
2022-12-25T13:03:14.381Z,68.94
2022-12-25T13:06:13.585Z,69.18
2022-12-25T13:09:08.412Z,69.26
2022-12-25T13:11:44.956Z,68.94
2022-12-25T13:14:20.636Z,68.74
2022-12-25T13:16:55.655Z,68.32
2022-12-25T13:19:31.206Z,68.38
2022-12-25T13:22:06.849Z,68.46
2022-12-25T13:24:40.303Z,68.65
2022-12-25T13:27:32.342Z,68.79
2022-12-25T13:30:16.556Z,69.21
2022-12-25T13:32:49.736Z,69.03
2022-12-25T13:35:25.076Z,69.16
2022-12-25T13:37:58.096Z,69.23
2022-12-25T13:40:31.635Z,69.20
2022-12-25T13:43:05.712Z,68.94
2022-12-25T13:45:38.627Z,69.60
2022-12-25T13:48:29.244Z,69.53
2022-12-25T13:51:04.013Z,69.31
2022-12-25T13:53:37.028Z,69.03
2022-12-25T13:56:14.811Z,68.52
2022-12-25T13:58:49.475Z,68.13
2022-12-25T14:01:22.915Z,68.06
2022-12-25T14:03:57.552Z,68.14
2022-12-25T14:06:34.331Z,68.08
2022-12-25T14:09:07.773Z,68.13
2022-12-25T14:11:42.990Z,68.20
2022-12-25T14:14:26.869Z,68.33
2022-12-25T14:17:01.380Z,68.53
2022-12-25T14:19:36.176Z,68.43
2022-12-25T14:22:29.031Z,68.84
2022-12-25T14:25:02.143Z,69.48
2022-12-25T14:27:35.935Z,69.11
2022-12-25T14:30:16.702Z,69.00
2022-12-25T14:32:55.189Z,68.92
2022-12-25T14:35:28.660Z,69.53
2022-12-25T14:38:02.946Z,69.80
2022-12-25T14:40:36.717Z,70.09
2022-12-25T14:43:25.759Z,70.25
2022-12-25T14:46:04.464Z,70.54
2022-12-25T14:48:37.633Z,70.14
2022-12-25T14:51:18.676Z,70.04
2022-12-25T14:53:56.443Z,69.80
2022-12-25T14:56:31.734Z,69.85
2022-12-25T14:59:04.889Z,69.44
2022-12-25T15:01:45.190Z,69.75
2022-12-25T15:04:21.014Z,69.92
2022-12-25T15:06:59.791Z,69.63
2022-12-25T15:09:32.784Z,69.37
2022-12-25T15:12:05.780Z,69.67
2022-12-25T15:14:40.721Z,69.54
2022-12-25T15:17:28.671Z,69.73
2022-12-25T15:20:04.865Z,69.69
2022-12-25T15:23:02.433Z,69.77
2022-12-25T15:25:32.581Z,69.70
2022-12-25T15:28:10.836Z,69.97
2022-12-25T15:30:47.663Z,70.06
2022-12-25T15:33:21.478Z,70.20
2022-12-25T15:35:54.148Z,70.03
2022-12-25T15:38:27.117Z,70.18
2022-12-25T15:41:00.110Z,70.70
2022-12-25T15:43:41.295Z,70.69
2022-12-25T15:46:17.158Z,70.73
2022-12-25T15:48:50.182Z,70.71
2022-12-25T15:51:23.368Z,70.60
2022-12-25T15:53:56.898Z,70.53
2022-12-25T15:56:30.161Z,70.40
2022-12-25T15:59:03.785Z,70.40
2022-12-25T16:01:36.980Z,70.46
2022-12-25T16:04:10.086Z,70.89
2022-12-25T16:06:43.562Z,71.38
2022-12-25T16:09:17.783Z,71.11
2022-12-25T16:11:51.018Z,71.00
2022-12-25T16:14:23.824Z,71.07
2022-12-25T16:16:57.101Z,71.51
2022-12-25T16:19:31.022Z,72.01
2022-12-25T16:22:04.433Z,72.37
2022-12-25T16:24:37.498Z,72.90
2022-12-25T16:27:10.710Z,72.84
2022-12-25T16:29:43.950Z,72.94
2022-12-25T16:32:17.742Z,72.51
2022-12-25T16:34:51.736Z,72.96
2022-12-25T16:37:24.704Z,72.97
2022-12-25T16:40:01.665Z,72.38
2022-12-25T16:42:35.450Z,72.11
2022-12-25T16:45:09.170Z,73.03
2022-12-25T16:47:42.560Z,72.84
2022-12-25T16:50:16.667Z,73.67
2022-12-25T16:52:49.912Z,73.40
2022-12-25T16:55:29.370Z,72.91
2022-12-25T16:58:05.097Z,72.78
2022-12-25T17:00:38.557Z,72.81
2022-12-25T17:03:11.651Z,72.60
2022-12-25T17:05:45.257Z,72.57
2022-12-25T17:08:18.296Z,73.02
2022-12-25T17:10:50.757Z,72.88
2022-12-25T17:13:23.664Z,72.94
2022-12-25T17:15:56.517Z,72.89
2022-12-25T17:18:29.545Z,73.28
2022-12-25T17:21:02.634Z,73.51
2022-12-25T17:23:35.584Z,73.50
2022-12-25T17:26:09.024Z,73.95
2022-12-25T17:28:41.981Z,74.15
2022-12-25T17:31:16.006Z,73.86
2022-12-25T17:33:49.044Z,74.08
2022-12-25T17:36:23.248Z,73.92
2022-12-25T17:38:56.124Z,74.93
2022-12-25T17:41:28.948Z,74.74
2022-12-25T17:44:01.739Z,75.40
2022-12-25T17:46:35.064Z,76.02
2022-12-25T17:49:09.172Z,75.25
2022-12-25T17:51:42.009Z,77.25
2022-12-25T17:54:15.795Z,76.87
2022-12-25T17:56:49.669Z,75.84
2022-12-25T17:59:30.213Z,75.50
2022-12-25T18:02:02.990Z,75.56
2022-12-25T18:04:35.955Z,75.80
2022-12-25T18:07:08.611Z,76.24
2022-12-25T18:09:41.276Z,75.60
2022-12-25T18:12:14.112Z,75.52
2022-12-25T18:14:46.873Z,75.12
2022-12-25T18:17:19.702Z,75.21
2022-12-25T18:19:55.531Z,75.16
2022-12-25T18:22:28.228Z,74.95
2022-12-25T18:25:01.016Z,74.99
2022-12-25T18:27:33.489Z,75.08
2022-12-25T18:30:07.327Z,75.24
2022-12-25T18:32:40.046Z,75.44
2022-12-25T18:35:12.835Z,75.55
2022-12-25T18:37:45.757Z,75.69
2022-12-25T18:40:18.388Z,76.66
2022-12-25T18:42:54.841Z,78.67
2022-12-25T18:45:33.749Z,77.52
2022-12-25T18:48:07.232Z,76.80
2022-12-25T18:50:41.881Z,77.19
2022-12-25T18:53:14.839Z,76.98
2022-12-25T18:55:47.646Z,76.79
2022-12-25T18:58:20.672Z,76.48
2022-12-25T19:00:53.724Z,76.25
2022-12-25T19:03:27.297Z,76.03
2022-12-25T19:06:00.538Z,75.99
2022-12-25T19:08:34.003Z,75.64
2022-12-25T19:11:10.664Z,75.32
2022-12-25T19:13:43.442Z,74.86
2022-12-25T19:16:16.955Z,76.54
2022-12-25T19:18:51.288Z,76.44
2022-12-25T19:21:24.623Z,76.84
2022-12-25T19:23:58.236Z,78.99
2022-12-25T19:26:31.021Z,78.64
2022-12-25T19:29:04.658Z,77.12
2022-12-25T19:31:38.431Z,77.15
2022-12-25T19:34:16.101Z,78.41
2022-12-25T19:36:49.059Z,76.41
2022-12-25T19:39:21.868Z,75.76
2022-12-25T19:41:54.770Z,75.17
2022-12-25T19:44:27.654Z,74.54
2022-12-25T19:47:00.527Z,74.34
2022-12-25T19:49:33.302Z,74.60
2022-12-25T19:52:07.377Z,74.93
2022-12-25T19:54:40.314Z,74.74
2022-12-25T19:57:13.332Z,74.75
2022-12-25T19:59:46.274Z,75.09
2022-12-25T20:02:19.387Z,74.91
2022-12-25T20:04:52.344Z,74.82
2022-12-25T20:07:25.160Z,74.57
2022-12-25T20:09:59.392Z,74.48
2022-12-25T20:12:32.159Z,73.93
2022-12-25T20:15:05.231Z,74.47
2022-12-25T20:17:38.055Z,74.21
2022-12-25T20:20:11.674Z,74.42
2022-12-25T20:22:44.678Z,74.43
2022-12-25T20:25:18.389Z,74.49
2022-12-25T20:27:51.391Z,74.36
2022-12-25T20:30:24.189Z,74.65
2022-12-25T20:32:58.373Z,77.41
2022-12-25T20:35:31.462Z,76.27
2022-12-25T20:38:04.072Z,77.91
2022-12-25T20:40:59.931Z,77.09
2022-12-25T20:43:31.369Z,77.79
2022-12-25T20:46:04.611Z,76.92
2022-12-25T20:48:38.210Z,77.05
2022-12-25T20:51:12.359Z,76.60
2022-12-25T20:53:45.907Z,77.11
2022-12-25T20:56:20.383Z,77.71
2022-12-25T20:58:57.754Z,77.85
2022-12-25T21:01:32.739Z,77.47
2022-12-25T21:04:05.673Z,77.86
2022-12-25T21:06:38.662Z,77.67
2022-12-25T21:09:11.372Z,77.39
2022-12-25T21:11:44.478Z,78.29
2022-12-25T21:14:17.524Z,77.86
2022-12-25T21:16:50.884Z,76.93
2022-12-25T21:19:23.569Z,76.90
2022-12-25T21:21:56.752Z,76.68
2022-12-25T21:24:29.707Z,76.45
2022-12-25T21:27:03.067Z,76.78
2022-12-25T21:29:35.853Z,76.65
2022-12-25T21:32:27.297Z,77.39
2022-12-25T21:35:00.264Z,77.70
2022-12-25T21:37:34.718Z,77.29
2022-12-25T21:40:14.391Z,77.34
2022-12-25T21:42:50.407Z,77.31
2022-12-25T21:45:23.528Z,77.25
2022-12-25T21:48:01.882Z,77.62
2022-12-25T21:50:55.498Z,77.65
2022-12-25T21:53:28.559Z,77.86
2022-12-25T21:56:06.381Z,77.76
2022-12-25T21:58:39.926Z,77.68
2022-12-25T22:01:17.355Z,77.74
2022-12-25T22:03:50.013Z,77.64
2022-12-25T22:06:41.309Z,77.83
2022-12-25T22:09:14.018Z,77.48
2022-12-25T22:12:05.365Z,77.26
2022-12-25T22:14:55.809Z,77.34
2022-12-25T22:17:53.370Z,77.53
2022-12-25T22:20:28.638Z,78.02
2022-12-25T22:23:01.388Z,78.31
2022-12-25T22:25:34.033Z,78.41
2022-12-25T22:28:08.871Z,78.37
2022-12-25T22:30:44.736Z,78.29
2022-12-25T22:33:17.755Z,78.24
2022-12-25T22:35:50.837Z,78.13
2022-12-25T22:38:23.671Z,78.91
2022-12-25T22:40:56.476Z,78.20
2022-12-25T22:44:06.294Z,77.65
2022-12-25T22:46:25.367Z,77.61
2022-12-25T22:48:58.719Z,77.38
2022-12-25T22:51:32.133Z,77.45
2022-12-25T22:54:05.150Z,77.62
2022-12-25T22:56:37.920Z,77.71
2022-12-25T22:59:10.823Z,78.13
2022-12-25T23:01:43.995Z,77.95
2022-12-25T23:04:16.827Z,77.67
2022-12-25T23:06:49.802Z,77.67
2022-12-25T23:09:28.194Z,77.36
2022-12-25T23:12:01.039Z,77.21
2022-12-25T23:14:43.320Z,77.05
2022-12-25T23:17:33.897Z,76.63
2022-12-25T23:20:25.630Z,76.56
2022-12-25T23:23:17.450Z,76.26
2022-12-25T23:26:12.182Z,76.08
2022-12-25T23:29:04.419Z,75.97
2022-12-25T23:31:38.473Z,75.88
2022-12-25T23:34:12.235Z,75.76
2022-12-25T23:36:45.019Z,75.84
2022-12-25T23:39:18.087Z,75.94
2022-12-25T23:41:51.226Z,75.61
2022-12-25T23:44:24.197Z,75.62
2022-12-25T23:46:56.942Z,75.44
2022-12-25T23:49:30.484Z,75.22
2022-12-25T23:52:03.738Z,75.08
2022-12-25T23:54:37.075Z,74.91
2022-12-25T23:57:09.910Z,74.90
2022-12-25T23:59:43.186Z,74.72
